KOEO/OEO METAR and TAF weather

Enter ICAO airport designator
Station Type Date Time Source
KOEO METAR 2018/12/19 03:15 UTC NOAA

KOEO 190315Z AUTO 15004KT 10SM CLR 01/M01 A2983 RMK AO2 T00071007


Station Type Date Time Source
KOEO Decoded METAR 2018/12/19 03:15 UTC NOAA

Osceola, L O Simenstad Municipal Airport, WI, United States (KOEO) 45-18-31N 092-41-24W
Dec 18, 2018 - 10:15 PM EST / 2018.12.19 0315 UTC
Wind: from the SSE (150 degrees) at 5 MPH (4 KT):0
Visibility: 10 mile(s):0
Sky conditions: clear
Temperature: 33.3 F (0.7 C)
Windchill: 28 F (-2 C):1
Dew Point: 30.7 F (-0.7 C)
Relative Humidity: 90%
Pressure (altimeter): 29.83 in. Hg (1010 hPa)
ob: KOEO 190315Z AUTO 15004KT 10SM CLR 01/M01 A2983 RMK AO2 T00071007
cycle: 3

Station Type Date Time Source
KOEO TAF UTC NOAA

Error!


Example: see airport list